Time;durP1;ratioP1;P1;durP2;ratioP2;P2;SDS_P1;SDS_P2;PMS_P1;PMS_P2;Temp;Humidity;BMP_temperature;BMP_pressure;BME280_temperature;BME280_humidity;BME280_pressure;Samples;Min_cycle;Max_cycle;Signal;HPM_P1;HPM_P2
2023/07/05 00:01:06;;;;;;;11.20;8.50;;;;;;;22.55;62.47;100596.65;105572;1258;60885;-58
2023/07/05 00:03:33;;;;;;;14.30;9.50;;;;;;;22.54;62.64;100599.27;105525;1257;60383;-58
2023/07/05 00:06:04;;;;;;;14.60;10.10;;;;;;;22.49;63.14;100611.95;105343;1253;63627;-57
2023/07/05 00:08:32;;;;;;;15.80;10.00;;;;;;;22.34;63.28;100616.27;105398;1253;60459;-60
2023/07/05 00:11:03;;;;;;;14.40;10.10;;;;;;;22.17;63.44;100619.36;105469;1259;63712;-59
2023/07/05 00:13:31;;;;;;;14.90;11.00;;;;;;;22.01;63.34;100617.60;105453;1256;60482;-59
2023/07/05 00:16:40;;;;;;;12.90;10.10;;;;;;;21.95;63.12;100619.39;105381;1257;60344;-58
2023/07/05 00:19:08;;;;;;;13.10;9.50;;;;;;;22.00;62.37;100618.91;105396;1253;64926;-58
2023/07/05 00:21:35;;;;;;;13.80;10.50;;;;;;;22.06;62.07;100622.02;105488;1253;63929;-61
2023/07/05 00:24:03;;;;;;;14.40;9.60;;;;;;;22.13;61.49;100616.19;105414;1256;63705;-60
2023/07/05 00:26:34;;;;;;;15.50;10.00;;;;;;;22.19;61.51;100613.68;105816;1253;60561;-60
2023/07/05 00:29:01;;;;;;;14.40;10.40;;;;;;;22.22;61.73;100606.55;105409;1259;60599;-58
2023/07/05 00:31:32;;;;;;;13.00;10.60;;;;;;;22.22;61.82;100601.45;105443;1254;64930;-59
2023/07/05 00:34:00;;;;;;;13.60;9.50;;;;;;;22.22;61.93;100598.77;105535;1259;60944;-59
2023/07/05 00:36:27;;;;;;;12.00;9.50;;;;;;;22.25;61.96;100599.90;105692;1259;62642;-59
2023/07/05 00:38:55;;;;;;;13.20;9.10;;;;;;;22.27;61.54;100604.63;105278;1260;61598;-59
2023/07/05 00:41:23;;;;;;;15.10;10.70;;;;;;;22.28;61.46;100610.46;105311;1253;60633;-58
2023/07/05 00:43:50;;;;;;;12.40;9.50;;;;;;;22.29;61.41;100615.02;105574;1259;64881;-60
2023/07/05 00:46:24;;;;;;;15.40;10.50;;;;;;;22.32;61.16;100619.39;105456;1253;62010;-62
2023/07/05 00:48:58;;;;;;;15.80;10.40;;;;;;;22.35;60.98;100624.80;105347;1257;64156;-58
2023/07/05 00:51:27;;;;;;;16.40;11.00;;;;;;;22.31;60.88;100624.48;105615;1253;60457;-58
2023/07/05 00:53:57;;;;;;;16.00;10.50;;;;;;;22.25;60.82;100623.17;106047;1254;60546;-59
2023/07/05 00:56:29;;;;;;;15.60;10.70;;;;;;;22.18;60.76;100620.80;105609;1258;64962;-59
2023/07/05 00:58:56;;;;;;;11.50;9.50;;;;;;;22.15;60.81;100623.14;105262;1262;61410;-59
2023/07/05 01:01:24;;;;;;;13.30;9.40;;;;;;;22.13;61.05;100625.17;105259;1256;63676;-59
2023/07/05 01:03:55;;;;;;;13.90;10.60;;;;;;;22.13;61.26;100622.15;105515;1253;60533;-59
2023/07/05 01:06:23;;;;;;;15.20;10.40;;;;;;;22.13;61.39;100618.52;105519;1261;60365;-60
2023/07/05 01:08:50;;;;;;;12.80;10.00;;;;;;;22.12;61.39;100618.23;105350;1253;64930;-62
2023/07/05 01:11:23;;;;;;;14.30;10.30;;;;;;;22.10;61.46;100618.09;105414;1256;61340;-60
2023/07/05 01:14:01;;;;;;;14.50;10.80;;;;;;;22.04;61.25;100623.57;105423;1261;63810;-60
2023/07/05 01:17:07;;;;;;;14.20;11.30;;;;;;;21.94;61.30;100630.60;105430;1254;60572;-59
2023/07/05 01:20:00;;;;;;;12.50;10.30;;;;;;;21.82;61.40;100638.48;105408;1258;60457;-58
2023/07/05 01:22:51;;;;;;;15.00;10.40;;;;;;;21.67;61.70;100648.04;106057;1259;64952;-59
2023/07/05 01:25:40;;;;;;;15.40;10.10;;;;;;;21.54;62.11;100651.61;105415;1253;61856;-60
2023/07/05 01:28:43;;;;;;;16.40;11.40;;;;;;;21.47;62.51;100648.27;105296;1259;63687;-60
2023/07/05 01:31:38;;;;;;;13.80;11.40;;;;;;;21.49;62.78;100647.31;105711;1253;61337;-59
2023/07/05 01:34:14;;;;;;;12.80;10.50;;;;;;;21.55;62.63;100646.51;105495;1254;60539;-58
2023/07/05 01:36:41;;;;;;;15.20;10.60;;;;;;;21.60;62.59;100649.25;105489;1254;63703;-58
2023/07/05 01:39:09;;;;;;;13.40;10.70;;;;;;;21.63;62.17;100652.45;105755;1254;61450;-58
2023/07/05 01:41:36;;;;;;;14.50;10.90;;;;;;;21.59;61.76;100656.29;105643;1253;63723;-59
2023/07/05 01:44:04;;;;;;;14.30;10.50;;;;;;;21.48;60.84;100667.64;105528;1257;60481;-60
2023/07/05 01:46:53;;;;;;;14.30;10.40;;;;;;;21.31;60.26;100677.50;105760;1260;60581;-58
2023/07/05 01:49:50;;;;;;;12.40;10.20;;;;;;;21.15;59.05;100677.45;105363;1254;64931;-59
2023/07/05 01:52:31;;;;;;;12.60;10.00;;;;;;;21.03;57.97;100672.50;105515;1259;61325;-59
2023/07/05 01:55:07;;;;;;;15.70;8.90;;;;;;;20.94;57.31;100666.66;105376;1257;64374;-59
2023/07/05 01:57:46;;;;;;;12.30;9.70;;;;;;;20.89;57.18;100660.13;105439;1256;60572;-60
2023/07/05 02:00:16;;;;;;;12.50;9.00;;;;;;;20.89;56.77;100667.75;105919;1256;60538;-58
2023/07/05 02:02:51;;;;;;;13.20;9.20;;;;;;;20.83;56.35;100677.23;105598;1253;63791;-58
2023/07/05 02:05:19;;;;;;;13.90;8.50;;;;;;;20.71;56.40;100676.16;105440;1254;63641;-59
2023/07/05 02:07:47;;;;;;;12.80;8.90;;;;;;;20.65;56.64;100671.83;105348;1253;63969;-60
2023/07/05 02:10:14;;;;;;;12.40;8.90;;;;;;;20.69;56.87;100671.20;105519;1254;60565;-59
2023/07/05 02:12:43;;;;;;;11.00;8.20;;;;;;;20.75;56.80;100678.86;105626;1256;60651;-59
2023/07/05 02:15:12;;;;;;;12.60;8.90;;;;;;;20.76;56.08;100676.58;105510;1253;65593;-60
2023/07/05 02:17:40;;;;;;;13.20;8.50;;;;;;;20.75;56.05;100673.58;105461;1259;61330;-61
2023/07/05 02:20:08;;;;;;;13.90;8.40;;;;;;;20.74;56.00;100666.63;105455;1257;62511;-59
2023/07/05 02:22:35;;;;;;;12.10;8.30;;;;;;;20.76;55.67;100666.64;105603;1259;60556;-59
2023/07/05 02:25:04;;;;;;;12.50;9.10;;;;;;;20.75;55.62;100668.82;105560;1254;60632;-59
2023/07/05 02:27:31;;;;;;;11.80;8.50;;;;;;;20.78;55.83;100674.38;105468;1253;63776;-58
2023/07/05 02:29:59;;;;;;;12.60;8.30;;;;;;;20.82;55.75;100670.54;105648;1253;61937;-58
2023/07/05 02:32:27;;;;;;;10.70;7.90;;;;;;;20.91;55.57;100668.44;105453;1254;63745;-59
2023/07/05 02:34:59;;;;;;;12.70;8.60;;;;;;;21.05;55.27;100672.25;105456;1259;60457;-59
2023/07/05 02:37:27;;;;;;;13.30;8.80;;;;;;;21.16;55.17;100671.48;105235;1255;60465;-58
2023/07/05 02:39:54;;;;;;;12.90;7.80;;;;;;;21.23;54.82;100664.14;105629;1259;63804;-60
2023/07/05 02:42:22;;;;;;;11.60;8.50;;;;;;;21.32;55.17;100656.39;105420;1258;61461;-60
2023/07/05 02:44:55;;;;;;;13.70;8.70;;;;;;;21.40;56.03;100654.50;105327;1257;63856;-60
2023/07/05 02:47:23;;;;;;;11.10;8.10;;;;;;;21.46;56.99;100654.30;105439;1256;60689;-59
2023/07/05 02:49:50;;;;;;;12.80;8.60;;;;;;;21.53;56.91;100658.64;105415;1259;60292;-59
2023/07/05 02:52:18;;;;;;;11.70;7.50;;;;;;;21.60;56.88;100657.36;105455;1259;65145;-58
2023/07/05 02:54:46;;;;;;;14.00;8.70;;;;;;;21.68;57.09;100663.96;105426;1259;61413;-59
2023/07/05 02:57:13;;;;;;;13.40;9.10;;;;;;;21.72;56.97;100662.52;105344;1257;63760;-60
2023/07/05 02:59:41;;;;;;;12.10;7.90;;;;;;;21.75;56.03;100660.28;105282;1255;60637;-58
2023/07/05 03:02:10;;;;;;;11.90;8.60;;;;;;;21.76;55.91;100657.09;105444;1253;60642;-57
2023/07/05 03:04:41;;;;;;;12.60;8.40;;;;;;;21.78;55.91;100651.67;105443;1253;64887;-57
2023/07/05 03:07:09;;;;;;;12.00;9.00;;;;;;;21.80;55.84;100649.92;105548;1254;61379;-57
2023/07/05 03:09:36;;;;;;;11.90;9.00;;;;;;;21.83;55.88;100648.77;106197;1257;62715;-56
2023/07/05 03:12:05;;;;;;;13.00;8.30;;;;;;;21.84;55.84;100647.16;105831;1253;60464;-57
2023/07/05 03:14:32;;;;;;;13.00;8.30;;;;;;;21.85;56.19;100643.91;105447;1259;60581;-54
2023/07/05 03:17:02;;;;;;;12.70;7.70;;;;;;;21.91;56.44;100645.20;105396;1254;64943;-56
2023/07/05 03:19:29;;;;;;;13.60;8.20;;;;;;;21.99;56.51;100646.52;105463;1259;60435;-56
2023/07/05 03:21:57;;;;;;;11.70;8.50;;;;;;;22.05;56.33;100643.08;105295;1254;63706;-56
2023/07/05 03:24:25;;;;;;;13.20;8.90;;;;;;;22.08;55.93;100641.70;105672;1259;60572;-58
2023/07/05 03:26:52;;;;;;;14.00;9.20;;;;;;;22.09;56.13;100639.94;105485;1254;60467;-56
2023/07/05 03:29:20;;;;;;;11.30;8.60;;;;;;;22.14;56.37;100635.64;106919;1256;64928;-56
2023/07/05 03:31:47;;;;;;;11.60;8.70;;;;;;;22.20;56.15;100635.38;105344;1256;60666;-54
2023/07/05 03:34:15;;;;;;;11.30;8.10;;;;;;;22.26;56.07;100635.51;105230;1257;62478;-60
2023/07/05 03:36:43;;;;;;;11.60;8.80;;;;;;;22.31;56.14;100637.96;105444;1259;61350;-57
2023/07/05 03:39:24;;;;;;;12.20;8.10;;;;;;;22.35;56.33;100637.02;105374;1253;60339;-56
2023/07/05 03:41:52;;;;;;;10.60;7.80;;;;;;;22.43;56.10;100635.17;105279;1260;63722;-58
2023/07/05 03:44:22;;;;;;;11.70;8.70;;;;;;;22.52;55.65;100638.23;105532;1253;60479;-60
2023/07/05 03:46:49;;;;;;;11.80;8.70;;;;;;;22.57;55.62;100641.09;105486;1254;63923;-60
2023/07/05 03:49:17;;;;;;;12.40;8.70;;;;;;;22.62;55.54;100645.29;105390;1257;60462;-60
2023/07/05 03:51:45;;;;;;;12.30;9.00;;;;;;;22.66;55.60;100641.73;105473;1259;60464;-60
2023/07/05 03:54:12;;;;;;;14.70;8.70;;;;;;;22.69;55.08;100637.09;105337;1253;66917;-60
2023/07/05 03:56:40;;;;;;;11.80;8.70;;;;;;;22.71;54.45;100634.27;105523;1253;61315;-60
2023/07/05 03:59:09;;;;;;;9.90;7.70;;;;;;;22.74;54.00;100630.48;106332;1253;63190;-60
2023/07/05 04:01:36;;;;;;;12.90;9.00;;;;;;;22.80;53.57;100628.49;109124;1253;60759;-62
2023/07/05 04:04:04;;;;;;;11.30;8.20;;;;;;;22.89;53.22;100626.48;109228;1253;58157;-62
2023/07/05 04:06:34;;;;;;;14.40;8.70;;;;;;;22.99;53.02;100631.76;107728;1259;65079;-61
2023/07/05 04:09:02;;;;;;;12.20;9.50;;;;;;;23.10;52.95;100632.19;105105;1257;61453;-61
2023/07/05 04:11:31;;;;;;;12.90;9.00;;;;;;;23.22;53.32;100629.55;105694;1257;62544;-63
2023/07/05 04:13:58;;;;;;;13.80;7.60;;;;;;;23.34;53.26;100627.66;105388;1253;61835;-60
2023/07/05 04:16:26;;;;;;;13.30;9.50;;;;;;;23.44;53.15;100627.54;105503;1253;60456;-63
2023/07/05 04:18:55;;;;;;;11.40;8.70;;;;;;;23.55;53.15;100627.98;105400;1254;65102;-61
2023/07/05 04:21:24;;;;;;;11.60;9.40;;;;;;;23.65;52.45;100622.34;105558;1259;60454;-61
2023/07/05 04:23:51;;;;;;;12.10;8.80;;;;;;;23.73;52.65;100619.96;105279;1257;64233;-61
2023/07/05 04:26:21;;;;;;;14.30;8.20;;;;;;;23.83;53.33;100618.56;105566;1259;60479;-61
2023/07/05 04:28:48;;;;;;;14.70;8.40;;;;;;;23.96;53.70;100625.40;105604;1259;60418;-62
2023/07/05 04:31:26;;;;;;;11.20;8.30;;;;;;;24.11;53.26;100624.82;105557;1253;63792;-62
2023/07/05 04:33:55;;;;;;;11.20;8.90;;;;;;;24.25;53.31;100620.27;105450;1259;60450;-62
2023/07/05 04:36:24;;;;;;;13.10;7.90;;;;;;;24.35;53.34;100614.23;105579;1257;62463;-62
2023/07/05 04:38:58;;;;;;;15.50;8.40;;;;;;;24.45;52.62;100613.69;105440;1259;60533;-61
2023/07/05 04:41:26;;;;;;;15.60;8.60;;;;;;;24.51;52.02;100611.95;105491;1254;60545;-62
2023/07/05 04:46:38;;;;;;;10.90;7.70;;;;;;;24.33;50.76;100617.79;102310;1295;600871;-62
2023/07/05 04:49:06;;;;;;;12.00;8.40;;;;;;;24.44;50.04;100618.45;104442;1275;59246;-60
2023/07/05 04:51:35;;;;;;;10.60;8.10;;;;;;;24.41;50.13;100618.95;104509;1272;59641;-59
2023/07/05 04:54:03;;;;;;;12.70;7.90;;;;;;;24.41;50.57;100623.20;104838;1267;62084;-60
2023/07/05 04:56:30;;;;;;;11.50;8.40;;;;;;;24.41;51.35;100622.42;104523;1273;60106;-59
2023/07/05 04:58:58;;;;;;;11.30;8.20;;;;;;;24.41;51.91;100620.35;104559;1270;72629;-59
2023/07/05 05:01:25;;;;;;;10.90;8.20;;;;;;;24.39;52.52;100621.14;105157;1266;354092;-60
2023/07/05 05:03:53;;;;;;;11.90;7.90;;;;;;;24.41;52.82;100618.27;104711;1267;59471;-59
2023/07/05 05:06:20;;;;;;;12.70;8.50;;;;;;;24.46;53.32;100619.82;105219;1263;63242;-60
2023/07/05 05:08:48;;;;;;;12.20;7.70;;;;;;;24.50;53.70;100621.21;105007;1269;60411;-60
2023/07/05 05:11:16;;;;;;;10.80;8.10;;;;;;;24.55;53.96;100619.66;104623;1269;64728;-58
2023/07/05 05:13:43;;;;;;;11.90;8.30;;;;;;;24.59;54.38;100618.38;104594;1269;59805;-61
2023/07/05 05:16:11;;;;;;;10.40;7.90;;;;;;;24.64;54.40;100623.09;104593;1265;59536;-60
2023/07/05 05:19:14;;;;;;;11.00;8.00;;;;;;;24.68;54.42;100620.94;104961;1269;62812;-61
2023/07/05 05:22:17;;;;;;;11.40;8.10;;;;;;;24.74;54.01;100614.83;104473;1273;61397;-60
2023/07/05 05:24:45;;;;;;;12.50;8.80;;;;;;;24.79;54.39;100609.80;104844;1270;63732;-58
2023/07/05 05:27:12;;;;;;;12.50;8.20;;;;;;;24.86;54.35;100608.42;105015;1269;59700;-58
2023/07/05 05:29:40;;;;;;;11.20;7.70;;;;;;;24.94;54.01;100612.33;104644;1269;59654;-59
2023/07/05 05:32:10;;;;;;;12.30;9.00;;;;;;;25.03;53.87;100611.27;105094;1269;64817;-59
2023/07/05 05:34:37;;;;;;;13.20;8.40;;;;;;;25.11;53.95;100610.90;105044;1268;61444;-62
2023/07/05 05:37:05;;;;;;;13.90;8.50;;;;;;;25.20;53.79;100607.75;104713;1267;63680;-59
2023/07/05 05:39:33;;;;;;;13.30;10.00;;;;;;;25.27;53.57;100604.43;105083;1267;59679;-59
2023/07/05 05:42:02;;;;;;;10.20;8.40;;;;;;;25.32;53.40;100601.60;104685;1266;59756;-59
2023/07/05 05:44:29;;;;;;;10.60;7.80;;;;;;;25.34;53.01;100605.60;104677;1269;64052;-57
2023/07/05 05:46:57;;;;;;;12.60;8.50;;;;;;;25.34;52.66;100605.73;104638;1270;60312;-57
2023/07/05 05:49:24;;;;;;;11.00;8.70;;;;;;;25.36;52.12;100610.66;104581;1269;71812;-58
2023/07/05 05:51:52;;;;;;;11.10;8.50;;;;;;;25.41;51.89;100603.79;104516;1263;59571;-59
2023/07/05 05:54:19;;;;;;;11.20;8.70;;;;;;;25.45;51.85;100598.12;104406;1270;59576;-60
2023/07/05 05:56:47;;;;;;;12.30;8.50;;;;;;;25.48;52.04;100599.52;104574;1265;62852;-61
2023/07/05 05:59:15;;;;;;;14.00;8.00;;;;;;;25.52;51.38;100600.90;104581;1270;61494;-64
2023/07/05 06:01:44;;;;;;;12.30;8.40;;;;;;;25.59;50.86;100599.25;105542;1259;63779;-60
2023/07/05 06:04:13;;;;;;;10.70;6.80;;;;;;;25.66;50.04;100595.36;105435;1255;59707;-59
2023/07/05 06:07:37;;;;;;;11.70;8.10;;;;;;;25.73;49.32;100599.40;105244;1259;59564;-60
2023/07/05 06:10:06;;;;;;;16.10;8.30;;;;;;;25.81;48.99;100596.12;105390;1258;64115;-61
2023/07/05 06:12:35;;;;;;;12.30;7.50;;;;;;;25.87;49.00;100593.13;105430;1260;61341;-59
2023/07/05 06:15:04;;;;;;;9.80;7.30;;;;;;;25.90;49.05;100589.79;105448;1260;63906;-59
2023/07/05 06:17:31;;;;;;;12.30;8.30;;;;;;;25.95;48.98;100589.44;105356;1258;59768;-59
2023/07/05 06:19:59;;;;;;;10.80;8.00;;;;;;;26.00;49.64;100587.21;105325;1259;59640;-61
2023/07/05 06:22:33;;;;;;;11.80;8.20;;;;;;;26.00;50.36;100586.03;106059;1259;64128;-61
2023/07/05 06:25:16;;;;;;;12.30;8.00;;;;;;;25.99;50.75;100588.85;105571;1254;62071;-59
2023/07/05 06:27:44;;;;;;;10.60;8.20;;;;;;;25.99;51.06;100596.17;105445;1260;62478;-59
2023/07/05 06:30:27;;;;;;;11.10;7.60;;;;;;;26.03;50.72;100595.89;105348;1255;59728;-60
2023/07/05 06:33:31;;;;;;;12.20;8.80;;;;;;;26.11;50.44;100598.48;105520;1254;59608;-59
2023/07/05 06:36:54;;;;;;;18.00;8.60;;;;;;;26.22;50.11;100591.14;105330;1259;64101;-58
2023/07/05 06:39:21;;;;;;;13.10;9.40;;;;;;;26.34;49.10;100583.97;105258;1264;61328;-60
2023/07/05 06:41:49;;;;;;;14.30;9.10;;;;;;;26.44;48.93;100582.13;105663;1259;63758;-60
2023/07/05 06:44:16;;;;;;;11.70;9.00;;;;;;;26.55;48.64;100583.17;105280;1254;59634;-59
2023/07/05 06:47:12;;;;;;;11.20;8.70;;;;;;;26.68;48.61;100581.06;105390;1259;59665;-59
2023/07/05 06:49:39;;;;;;;11.70;7.90;;;;;;;26.78;48.35;100579.84;105142;1263;66240;-61
2023/07/05 06:52:10;;;;;;;11.30;7.60;;;;;;;26.82;48.50;100580.86;105516;1260;61539;-61
2023/07/05 06:54:38;;;;;;;12.60;8.90;;;;;;;26.81;48.97;100581.30;105189;1258;63758;-59
2023/07/05 06:57:06;;;;;;;11.20;8.10;;;;;;;26.78;49.14;100581.30;105534;1257;59743;-62
2023/07/05 07:02:50;;;;;;;10.90;8.30;;;;;;;26.76;50.11;100581.92;105637;1265;63160;-80
2023/07/05 07:05:18;;;;;;;13.60;9.00;;;;;;;26.77;50.35;100586.83;105523;1263;60127;-81
2023/07/05 07:07:52;;;;;;;11.20;8.90;;;;;;;26.81;50.00;100589.89;105248;1269;62467;-81
2023/07/05 07:10:19;;;;;;;14.80;8.40;;;;;;;26.78;49.89;100584.36;105595;1265;60670;-84
2023/07/05 07:12:47;;;;;;;11.00;7.80;;;;;;;26.79;49.53;100585.40;105577;1260;59580;-81
2023/07/05 07:15:14;;;;;;;11.20;9.30;;;;;;;26.83;49.55;100590.30;105508;1265;64068;-80
2023/07/05 07:17:41;;;;;;;11.20;8.20;;;;;;;26.89;49.05;100594.99;105988;1265;61389;-82
2023/07/05 07:20:09;;;;;;;10.90;8.80;;;;;;;27.01;48.29;100590.41;105383;1266;63840;-84
2023/07/05 07:22:37;;;;;;;11.80;8.30;;;;;;;27.08;47.55;100591.81;105546;1265;59743;-81
2023/07/05 07:25:05;;;;;;;13.60;8.90;;;;;;;27.12;47.38;100593.26;105482;1262;59734;-80
2023/07/05 07:27:33;;;;;;;11.70;7.90;;;;;;;27.14;47.55;100597.64;105624;1265;64116;-80
2023/07/05 07:30:00;;;;;;;12.50;7.90;;;;;;;27.16;47.38;100597.52;105467;1274;60103;-82
2023/07/05 07:32:28;;;;;;;10.30;7.40;;;;;;;27.19;47.30;100590.59;105476;1267;63774;-84
2023/07/05 07:34:55;;;;;;;12.10;8.40;;;;;;;27.24;47.20;100592.08;104704;1262;59862;-80
2023/07/05 07:37:23;;;;;;;14.20;8.30;;;;;;;27.26;47.31;100592.58;106836;1264;59387;-81
2023/07/05 07:39:51;;;;;;;13.70;9.10;;;;;;;27.32;48.64;100602.04;105376;1265;64095;-80
2023/07/05 07:42:18;;;;;;;11.70;9.00;;;;;;;27.37;48.97;100601.11;105470;1268;60216;-85
2023/07/05 07:45:23;;;;;;;14.90;8.70;;;;;;;27.41;49.23;100601.98;105168;1268;63764;-89
2023/07/05 07:47:51;;;;;;;12.10;9.40;;;;;;;27.43;48.94;100606.55;105400;1264;59695;-85
2023/07/05 07:50:18;;;;;;;13.10;9.10;;;;;;;27.43;48.75;100609.37;105481;1264;59699;-81
2023/07/05 07:52:46;;;;;;;14.00;9.80;;;;;;;27.45;48.87;100610.55;106686;1264;64208;-81
2023/07/05 07:55:13;;;;;;;12.70;9.60;;;;;;;27.47;49.33;100614.44;109014;1260;60386;-80
2023/07/05 07:57:41;;;;;;;15.80;9.80;;;;;;;27.47;49.54;100621.76;108922;1261;62463;-78
2023/07/05 08:00:39;;;;;;;16.10;10.00;;;;;;;27.47;49.43;100625.25;109007;1260;57173;-82
2023/07/05 08:03:22;;;;;;;12.40;10.10;;;;;;;27.44;49.34;100629.06;108645;1264;58328;-82
2023/07/05 08:05:51;;;;;;;13.30;10.40;;;;;;;27.39;49.51;100634.38;105348;1267;62893;-79
2023/07/05 08:08:18;;;;;;;13.10;10.70;;;;;;;27.34;49.78;100640.30;106002;1262;60114;-83
2023/07/05 08:10:46;;;;;;;18.70;10.80;;;;;;;27.30;49.65;100644.27;105439;1266;63755;-83
2023/07/05 08:13:13;;;;;;;16.50;11.00;;;;;;;27.25;49.54;100641.77;105537;1265;59766;-82
2023/07/05 08:16:34;;;;;;;15.20;11.40;;;;;;;27.19;49.28;100645.81;106056;1262;59772;-85
2023/07/05 08:19:02;;;;;;;14.80;10.20;;;;;;;27.15;49.29;100650.19;105433;1261;64547;-88
2023/07/05 08:21:29;;;;;;;14.20;10.00;;;;;;;27.16;49.30;100651.34;105363;1266;60168;-89
2023/07/05 08:23:57;;;;;;;15.50;11.40;;;;;;;27.21;49.43;100649.36;105426;1266;63728;-87
2023/07/05 08:26:32;;;;;;;17.80;11.30;;;;;;;27.21;49.53;100653.17;105498;1265;59778;-82
2023/07/05 08:29:00;;;;;;;15.00;10.50;;;;;;;27.22;49.41;100652.42;105598;1264;59650;-80
2023/07/05 08:31:27;;;;;;;14.50;10.90;;;;;;;27.24;49.42;100650.21;105653;1266;64059;-87
2023/07/05 08:33:55;;;;;;;15.50;11.10;;;;;;;27.23;49.32;100649.27;105466;1267;60107;-79
2023/07/05 08:36:39;;;;;;;15.90;10.60;;;;;;;27.21;49.28;100650.95;105672;1262;62466;-82
2023/07/05 08:39:07;;;;;;;14.00;9.90;;;;;;;27.22;49.03;100654.70;106747;1263;59753;-77
2023/07/05 08:41:44;;;;;;;16.90;10.30;;;;;;;27.24;49.05;100657.14;105702;1263;59850;-84
2023/07/05 08:44:29;;;;;;;17.90;10.20;;;;;;;27.28;49.20;100658.48;106671;1266;62863;-79
2023/07/05 08:47:00;;;;;;;21.40;11.30;;;;;;;27.31;49.00;100660.75;107576;1261;60148;-84
2023/07/05 08:49:37;;;;;;;18.90;10.50;;;;;;;27.35;49.14;100663.44;108030;1262;62633;-80
2023/07/05 08:52:29;;;;;;;15.80;9.80;;;;;;;27.38;49.15;100661.86;107364;1264;59294;-81
2023/07/05 08:54:59;;;;;;;13.70;10.10;;;;;;;27.42;49.26;100664.73;107245;1262;59690;-80
2023/07/05 08:57:30;;;;;;;14.40;9.60;;;;;;;27.49;48.76;100672.29;106948;1264;64085;-80
2023/07/05 09:00:11;;;;;;;14.70;10.20;;;;;;;27.57;48.49;100677.73;106885;1263;61431;-79
2023/07/05 09:03:30;;;;;;;14.10;9.90;;;;;;;27.68;48.35;100683.97;107553;1264;62462;-80
2023/07/05 09:06:16;;;;;;;15.70;9.90;;;;;;;27.75;47.42;100683.41;107460;1262;60425;-80
2023/07/05 09:09:04;;;;;;;14.10;9.00;;;;;;;27.78;46.85;100682.42;108191;1264;60429;-80
2023/07/05 09:11:51;;;;;;;13.80;10.30;;;;;;;27.80;46.76;100683.75;107745;1263;63776;-78
2023/07/05 09:18:01;;;;;;;12.70;9.50;;;;;;;27.89;46.18;100682.59;106934;1267;62519;-79
2023/07/05 09:20:49;;;;;;;15.80;10.20;;;;;;;27.95;46.00;100686.34;106456;1264;60554;-80
2023/07/05 09:23:42;;;;;;;12.80;9.80;;;;;;;28.02;45.85;100687.13;107122;1263;60471;-79
2023/07/05 09:26:19;;;;;;;17.10;9.60;;;;;;;28.09;45.96;100684.64;107080;1263;63669;-79
2023/07/05 09:28:50;;;;;;;14.50;10.20;;;;;;;28.14;46.00;100684.08;107372;1264;60352;-78
2023/07/05 09:31:17;;;;;;;17.50;10.10;;;;;;;28.18;45.74;100679.56;105823;1267;63724;-81
2023/07/05 09:33:46;;;;;;;16.10;10.60;;;;;;;28.21;46.16;100670.86;106823;1263;60578;-82
2023/07/05 09:36:22;;;;;;;15.90;10.70;;;;;;;28.25;45.72;100669.50;105708;1264;61137;-79
2023/07/05 09:38:56;;;;;;;16.30;10.00;;;;;;;28.27;44.62;100664.75;106495;1262;64984;-80
2023/07/05 09:41:46;;;;;;;15.60;10.10;;;;;;;28.28;45.08;100665.86;106659;1264;60504;-83
2023/07/05 09:44:18;;;;;;;16.50;10.10;;;;;;;28.32;45.86;100665.05;108526;1262;62533;-80
2023/07/05 09:46:51;;;;;;;18.30;10.80;;;;;;;28.38;46.14;100664.84;107765;1262;60692;-81
2023/07/05 09:49:19;;;;;;;15.20;10.00;;;;;;;28.43;46.63;100662.30;106077;1263;60514;-79
2023/07/05 09:51:47;;;;;;;18.10;10.90;;;;;;;28.49;46.75;100662.13;105254;1266;64937;-80
2023/07/05 09:54:30;;;;;;;18.20;9.60;;;;;;;28.56;46.52;100660.74;105818;1264;61540;-80
2023/07/05 09:57:04;;;;;;;14.80;10.10;;;;;;;28.61;46.55;100659.98;105766;1267;63702;-82
2023/07/05 09:59:33;;;;;;;13.70;9.90;;;;;;;28.66;46.68;100656.20;105438;1263;60359;-82
2023/07/05 10:02:12;;;;;;;14.10;9.30;;;;;;;28.69;45.86;100658.10;106533;1264;60475;-81
2023/07/05 10:04:50;;;;;;;19.90;10.40;;;;;;;28.69;45.51;100657.02;107132;1264;64939;-76
2023/07/05 10:07:20;;;;;;;16.50;9.50;;;;;;;28.68;45.40;100658.09;106349;1264;61396;-79
2023/07/05 10:09:59;;;;;;;13.70;9.80;;;;;;;28.67;45.33;100657.84;105489;1263;62537;-79
2023/07/05 10:12:31;;;;;;;17.00;9.70;;;;;;;28.65;45.55;100659.66;105479;1262;60545;-80
2023/07/05 10:14:59;;;;;;;17.10;10.20;;;;;;;28.67;45.64;100659.75;105467;1263;60461;-86
2023/07/05 10:17:42;;;;;;;16.40;11.50;;;;;;;28.72;46.09;100659.76;106139;1267;64573;-85
2023/07/05 10:20:20;;;;;;;13.60;9.80;;;;;;;28.79;45.24;100662.66;108113;1262;60099;-78
2023/07/05 10:22:58;;;;;;;16.80;8.80;;;;;;;28.83;44.29;100660.85;108824;1263;71169;-84
2023/07/05 10:25:25;;;;;;;14.90;9.90;;;;;;;28.86;43.42;100663.21;108842;1262;58078;-83
2023/07/05 10:27:57;;;;;;;13.50;8.70;;;;;;;28.92;43.04;100660.34;108896;1262;57955;-82
2023/07/05 10:30:24;;;;;;;13.20;9.10;;;;;;;28.99;43.12;100665.05;108761;1261;63845;-83
2023/07/05 10:33:17;;;;;;;16.30;10.30;;;;;;;29.06;42.88;100668.17;108173;1263;61429;-82
2023/07/05 10:36:14;;;;;;;11.90;8.80;;;;;;;29.15;42.67;100663.61;106505;1262;62554;-82
2023/07/05 10:38:51;;;;;;;12.40;8.80;;;;;;;29.21;42.74;100660.27;106446;1262;60913;-86
2023/07/05 10:41:42;;;;;;;12.20;9.00;;;;;;;29.25;42.61;100661.77;107195;1264;60672;-83
2023/07/05 10:44:24;;;;;;;13.00;9.30;;;;;;;29.34;43.11;100660.58;106005;1264;63710;-85
2023/07/05 10:46:53;;;;;;;11.20;8.70;;;;;;;29.43;42.48;100656.58;105477;1262;60533;-83
2023/07/05 10:49:21;;;;;;;14.60;9.10;;;;;;;29.48;41.88;100651.05;105526;1264;63768;-80
2023/07/05 10:51:51;;;;;;;10.60;8.40;;;;;;;29.54;42.23;100652.02;105665;1263;60541;-78
2023/07/05 10:54:36;;;;;;;13.70;9.00;;;;;;;29.62;41.26;100654.92;105746;1263;60514;-82
2023/07/05 10:57:14;;;;;;;11.60;8.70;;;;;;;29.72;41.23;100652.57;106039;1262;64979;-80
2023/07/05 11:00:21;;;;;;;14.00;8.50;;;;;;;29.82;40.76;100645.89;105403;1267;60466;-82
2023/07/05 11:03:00;;;;;;;;;;;;;;;29.82;40.69;100651.42;105402;1269;62618;-82
2023/07/05 11:09:02;;;;;;;12.40;8.50;;;;;;;29.81;40.25;100645.98;105386;1263;60380;-86
2023/07/05 11:11:30;;;;;;;13.30;8.70;;;;;;;29.80;40.21;100647.43;106119;1262;76103;-86
2023/07/05 11:14:00;;;;;;;12.30;7.20;;;;;;;29.85;39.98;100640.40;106051;1262;61335;-84
2023/07/05 11:16:28;;;;;;;12.90;7.90;;;;;;;29.93;40.35;100638.86;105568;1261;63776;-89
2023/07/05 11:19:11;;;;;;;13.40;9.20;;;;;;;30.05;40.65;100638.17;105394;1263;60445;-88
2023/07/05 11:21:44;;;;;;;10.90;8.50;;;;;;;30.17;40.68;100634.32;105561;1262;60415;-88
2023/07/05 11:24:56;;;;;;;12.00;8.50;;;;;;;30.29;40.51;100626.88;108319;1262;65231;-83
2023/07/05 11:27:32;;;;;;;12.50;9.10;;;;;;;30.42;40.40;100628.95;108862;1262;60171;-81
2023/07/05 11:30:00;;;;;;;14.70;8.80;;;;;;;30.56;39.88;100629.27;108963;1262;62571;-80
2023/07/05 11:33:02;;;;;;;12.00;8.80;;;;;;;30.68;39.49;100631.88;108926;1261;58005;-80
2023/07/05 11:35:43;;;;;;;14.40;9.80;;;;;;;30.79;39.83;100631.92;108602;1263;58494;-80
2023/07/05 11:38:36;;;;;;;11.00;8.70;;;;;;;30.89;39.23;100629.77;106933;1261;65224;-78
2023/07/05 11:41:23;;;;;;;14.70;9.20;;;;;;;30.99;39.00;100629.14;106552;1262;61535;-81
2023/07/05 11:44:29;;;;;;;11.10;8.70;;;;;;;31.06;39.13;100626.23;106776;1263;62466;-80
2023/07/05 11:46:58;;;;;;;10.80;8.90;;;;;;;31.13;38.99;100625.02;106711;1261;60921;-81
2023/07/05 11:49:30;;;;;;;13.20;8.50;;;;;;;31.19;38.43;100622.39;106615;1262;60535;-80